Terminal Aerodrome Forecast
Issued by NWS

Home | Current Version | Previous Version | Text Only | Print | Product List | Glossary On
Versions: 1 2 3 4 5 6 7 8 9 10 11 12 13
000
FTUS43 KICT 231100
TAFSLN
TAF
KSLN 231125Z 2312/2412 09007KT P6SM SCT015 OVC250
      TEMPO 2313/2315 -SHRA SCT015 BKN070
     FM231500 09006KT P6SM BKN250
     FM240200 13005KT P6SM SCT250=

USA.gov is the U.S. government's official web portal to all federal, state and local government web resources and services.